Ayr, ND

8:43 PM CDT on October 24, 2014 (GMT -0500)
Home of the Absaraka Crows | Change Station
CLOSE
Current Station
Personal Weather Station
Location: Absaraka, ND
Elevation: 1066 ft
Nearby Weather Stations

Elev 1066 ft 46.98 °N, 97.39 °W | Updated 7 seconds ago

Clear
Clear
59.2 °F
Feels Like 59.2 °F
N
9.2
Wind Variable Wind from NW
Gusts 10.7 mph

Today
High -- | Low -- °F
--% Chance of Precip.
Yesterday
High -- | Low -- °F
Precip. -- in
8:01 AM 6:26 PM
New Moon, 1% visible
Pressure 29.92 in
Visibility 10.0 miles
Clouds Scattered Clouds 12000 ft
Dew Point 35 °F
Humidity 40%
Rainfall 0.00 in
Snow Depth Not available.
UV 0 out of 12
Pollen 2.00 out of 12
Air Quality Not available.
Flu Activity Sporadic
METAR KBAC 250135Z AUTO 27010KT 10SM SCT120 13/00 A2992 RMK AO2

More Conditions Fewer Conditions

Pressure 29.92 in
Visibility 10.0 miles
Clouds Scattered Clouds 12000 ft
Dew Point 35 °F
Humidity 40%
Rainfall 0.00 in
Snow Depth Not available.
UV 0 out of 12
Pollen 2.00 out of 12
Air Quality Not available.
Flu Activity Sporadic
METAR KBAC 250135Z AUTO 27010KT 10SM SCT120 13/00 A2992 RMK AO2

More Conditions Fewer Conditions

10-Day Weather Forecast

Almanac

Astronomy

Oct. 24, 2014 Rise Set
Actual Time 8:01 AM CDT 6:26 PM CDT
Civil Twilight 7:30 AM CDT 6:58 PM CDT
Nautical Twilight 6:54 AM CDT 7:33 PM CDT
Astronomical Twilight 6:19 AM CDT 8:08 PM CDT
Moon 8:43 AM CDT (10/24) 7:04 PM CDT (10/24)
Length of Visible Light 11h 28m
Length of Day
10h 25m
Tomorrow will be 3m 9s shorter.
New Moon, 1% of the Moon is Illuminated
Today
New Moon
Oct 30
First Quarter
Nov 6
Full
Nov 14
Last Quarter
Nov 22
New

Today's Extremes

State Highs State Lows

Community

WunderPhotos

Upload Photos

1,764,749 photos uploaded!

WunderBlogs® & News

Nearby

Snow Depth

Station Depth Elevation
No new snow has been reported.

Earthquake Activity

City Distance Mag. Time & Date
No recent earthquake activity has been reported nearby.
Minimum magnitude displayed is 2.5.

Coastal Water Temperatures

Place Temperature
No Stations Reporting

Nearby Weather Stations